Time;durP1;ratioP1;P1;durP2;ratioP2;P2;SDS_P1;SDS_P2;PMS_P1;PMS_P2;Temp;Humidity;BMP_temperature;BMP_pressure;BME280_temperature;BME280_humidity;BME280_pressure;Samples;Min_cycle;Max_cycle;Signal;HPM_P1;HPM_P2
2022/12/06 00:01:36;;;;;;;11.73;10.63;;;;;;;3.11;100.00;96863.34;5071139;28;20214;-60
2022/12/06 00:04:05;;;;;;;10.70;9.60;;;;;;;3.04;100.00;96856.81;5073787;28;20286;-59
2022/12/06 00:06:33;;;;;;;13.73;11.30;;;;;;;3.03;100.00;96852.50;5070974;28;20205;-60
2022/12/06 00:09:00;;;;;;;12.57;11.37;;;;;;;3.03;100.00;96860.34;5071272;28;20206;-59
2022/12/06 00:11:28;;;;;;;11.80;10.60;;;;;;;3.05;100.00;96856.69;5070721;28;20194;-59
2022/12/06 00:13:56;;;;;;;11.30;10.23;;;;;;;3.10;100.00;96854.66;5070847;28;20555;-59
2022/12/06 00:16:24;;;;;;;11.17;10.07;;;;;;;3.08;100.00;96858.31;5071007;28;20210;-60
2022/12/06 00:18:52;;;;;;;10.97;9.97;;;;;;;3.16;100.00;96858.66;5075639;28;20640;-60
2022/12/06 00:21:20;;;;;;;12.37;11.13;;;;;;;3.17;100.00;96857.72;5075404;28;20219;-60
2022/12/06 00:23:48;;;;;;;11.37;10.23;;;;;;;3.19;100.00;96853.28;5070692;28;20293;-60
2022/12/06 00:26:15;;;;;;;11.37;10.27;;;;;;;3.17;100.00;96855.97;5070768;28;20214;-60
2022/12/06 00:28:42;;;;;;;11.30;10.20;;;;;;;3.25;100.00;96845.91;5070975;28;20220;-60
2022/12/06 00:31:10;;;;;;;11.30;10.17;;;;;;;3.28;100.00;96847.47;5070969;28;20194;-59
2022/12/06 00:33:37;;;;;;;11.80;10.70;;;;;;;3.27;100.00;96848.41;5070550;28;20198;-59
2022/12/06 00:36:10;;;;;;;12.83;11.53;;;;;;;3.29;100.00;96839.56;5070949;28;20210;-60
2022/12/06 00:38:37;;;;;;;11.87;10.70;;;;;;;3.31;100.00;96842.06;5070825;28;20558;-60
2022/12/06 00:41:05;;;;;;;11.17;10.17;;;;;;;3.23;100.00;96846.91;5070912;28;20222;-57
2022/12/06 00:43:33;;;;;;;12.23;10.93;;;;;;;3.23;100.00;96846.91;5071098;28;20217;-59
2022/12/06 00:46:00;;;;;;;12.70;11.50;;;;;;;3.20;100.00;96836.63;5070960;28;20202;-59
2022/12/06 00:48:27;;;;;;;11.50;10.40;;;;;;;3.27;100.00;96823.09;5070720;28;20638;-59
2022/12/06 00:50:54;;;;;;;12.03;10.83;;;;;;;3.33;100.00;96829.75;5071032;28;20202;-60
2022/12/06 00:53:21;;;;;;;11.67;10.47;;;;;;;3.33;100.00;96832.38;5076279;28;20204;-60
2022/12/06 00:55:48;;;;;;;11.77;10.57;;;;;;;3.25;100.00;96830.22;5096654;28;20187;-59
2022/12/06 00:58:15;;;;;;;12.33;11.13;;;;;;;3.31;100.00;96826.38;5088126;28;20224;-59
2022/12/06 01:00:41;;;;;;;12.60;11.30;;;;;;;3.32;100.00;96821.06;5073812;28;20234;-58
2022/12/06 01:03:08;;;;;;;12.20;11.03;;;;;;;3.34;100.00;96823.56;5096393;28;20246;-60
2022/12/06 01:05:40;;;;;;;13.33;12.03;;;;;;;3.29;100.00;96823.03;5092662;28;20202;-59
2022/12/06 01:08:06;;;;;;;13.37;12.07;;;;;;;3.26;100.00;96823.22;5077344;28;20198;-59
2022/12/06 01:10:34;;;;;;;13.67;12.27;;;;;;;3.34;100.00;96820.94;5070639;28;20217;-59
2022/12/06 01:13:01;;;;;;;12.60;11.40;;;;;;;3.40;100.00;96823.22;5070345;28;20269;-59
2022/12/06 01:15:27;;;;;;;13.13;11.83;;;;;;;3.33;100.00;96816.69;5070946;28;20302;-59
2022/12/06 01:17:54;;;;;;;12.77;11.57;;;;;;;3.29;100.00;96818.66;5070144;28;20206;-58
2022/12/06 01:20:21;;;;;;;13.00;11.73;;;;;;;3.22;100.00;96824.34;5070769;28;20203;-59
2022/12/06 01:22:47;;;;;;;13.03;11.73;;;;;;;3.23;100.00;96821.59;5070151;28;20241;-59
2022/12/06 01:25:14;;;;;;;13.07;11.80;;;;;;;3.07;100.00;96820.03;5070710;28;20565;-59
2022/12/06 01:27:43;;;;;;;13.10;11.80;;;;;;;3.04;100.00;96820.22;5070024;28;20639;-59
2022/12/06 01:30:10;;;;;;;12.77;11.57;;;;;;;3.03;100.00;96815.94;5070362;28;20199;-59
2022/12/06 01:32:36;;;;;;;12.73;11.10;;;;;;;3.06;100.00;96813.13;5069813;28;20195;-58
2022/12/06 01:35:06;;;;;;;13.37;12.07;;;;;;;2.93;100.00;96819.09;5070792;28;20210;-59
2022/12/06 01:37:32;;;;;;;13.03;11.77;;;;;;;2.89;100.00;96825.44;5070161;28;20235;-58
2022/12/06 01:39:59;;;;;;;12.77;11.57;;;;;;;2.89;100.00;96830.66;5072013;28;20207;-58
2022/12/06 01:42:25;;;;;;;13.07;11.77;;;;;;;2.83;100.00;96836.25;5074178;28;20238;-59
2022/12/06 01:44:54;;;;;;;12.83;11.60;;;;;;;2.88;100.00;96831.59;5074307;28;20723;-59
2022/12/06 01:47:26;;;;;;;13.57;12.20;;;;;;;2.88;100.00;96828.13;5073352;28;20210;-59
2022/12/06 01:49:56;;;;;;;12.73;11.53;;;;;;;2.93;100.00;96823.47;5073385;28;20651;-59
2022/12/06 01:52:25;;;;;;;12.23;11.00;;;;;;;3.00;100.00;96825.63;5074515;28;20197;-60
2022/12/06 01:54:53;;;;;;;13.13;11.80;;;;;;;3.06;100.00;96820.97;5075587;28;20213;-59
2022/12/06 01:57:19;;;;;;;12.73;11.53;;;;;;;3.16;100.00;96814.25;5075876;28;20558;-59
2022/12/06 01:59:46;;;;;;;13.17;11.87;;;;;;;3.10;100.00;96825.06;5076749;28;20213;-60
2022/12/06 02:02:14;;;;;;;13.37;12.17;;;;;;;3.15;100.00;96825.66;5075384;28;20674;-59
2022/12/06 02:04:41;;;;;;;13.43;12.13;;;;;;;3.11;100.00;96821.53;5073174;28;20213;-59
2022/12/06 02:07:09;;;;;;;13.13;11.83;;;;;;;3.17;100.00;96810.69;5073280;28;20205;-59
2022/12/06 02:09:36;;;;;;;12.40;11.20;;;;;;;3.27;100.00;96811.81;5073448;28;20230;-60
2022/12/06 02:12:02;;;;;;;12.20;11.00;;;;;;;3.25;100.00;96818.91;5073818;28;20205;-58
2022/12/06 02:14:32;;;;;;;12.47;11.27;;;;;;;3.29;100.00;96812.56;5073392;28;20198;-59
2022/12/06 02:17:10;;;;;;;12.87;11.67;;;;;;;3.31;100.00;96808.91;5072680;28;20209;-58
2022/12/06 02:20:04;;;;;;;12.57;11.37;;;;;;;3.41;100.00;96803.94;5072609;28;20786;-59
2022/12/06 02:22:42;;;;;;;13.33;12.07;;;;;;;3.49;100.00;96802.56;5058626;28;20222;-59
2022/12/06 02:25:32;;;;;;;12.63;11.53;;;;;;;3.54;100.00;96797.03;5073245;28;21115;-59
2022/12/06 02:28:12;;;;;;;13.30;12.10;;;;;;;3.60;100.00;96794.03;5075005;28;20199;-60
2022/12/06 02:30:45;;;;;;;13.37;12.10;;;;;;;3.64;100.00;96795.53;5075524;28;20205;-59
2022/12/06 02:33:17;;;;;;;14.10;12.70;;;;;;;3.68;100.00;96793.56;5075836;28;20214;-59
2022/12/06 02:35:48;;;;;;;13.10;11.90;;;;;;;3.67;100.00;96790.09;5076707;28;20293;-58
2022/12/06 02:38:16;;;;;;;13.17;11.97;;;;;;;3.72;100.00;96788.00;5076346;28;20242;-59
2022/12/06 02:40:46;;;;;;;12.77;11.57;;;;;;;3.76;100.00;96794.72;5077030;28;20199;-59
2022/12/06 02:43:14;;;;;;;14.33;12.83;;;;;;;3.79;100.00;96785.88;5077067;28;20228;-59
2022/12/06 02:45:46;;;;;;;13.83;12.53;;;;;;;3.80;100.00;96780.53;5071937;28;20210;-59
2022/12/06 02:48:13;;;;;;;13.93;12.57;;;;;;;3.80;100.00;96780.53;5072303;28;20198;-59
2022/12/06 02:50:42;;;;;;;13.53;12.23;;;;;;;3.84;100.00;96781.16;5071499;28;20218;-59
2022/12/06 02:53:12;;;;;;;13.27;11.97;;;;;;;3.88;100.00;96775.63;5072557;28;20209;-59
2022/12/06 02:55:39;;;;;;;12.80;11.67;;;;;;;3.93;100.00;96778.78;5072112;28;20202;-58
2022/12/06 02:58:06;;;;;;;12.93;11.73;;;;;;;3.95;100.00;96774.31;5072460;28;20251;-59
2022/12/06 03:00:40;;;;;;;13.37;12.07;;;;;;;3.92;100.00;96779.75;5072538;28;20206;-59
2022/12/06 03:03:28;;;;;;;12.27;11.17;;;;;;;3.89;100.00;96774.72;5072010;28;20226;-59
2022/12/06 03:06:14;;;;;;;12.30;11.20;;;;;;;3.89;100.00;96777.34;5072125;28;20217;-59
2022/12/06 03:08:45;;;;;;;12.10;11.00;;;;;;;3.89;100.00;96769.47;5072636;28;20206;-60
2022/12/06 03:11:12;;;;;;;12.67;11.47;;;;;;;3.92;100.00;96774.50;5072042;28;20198;-60
2022/12/06 03:13:45;;;;;;;12.43;11.33;;;;;;;3.88;100.00;96773.03;5072313;28;20213;-59
2022/12/06 03:16:19;;;;;;;12.30;11.20;;;;;;;3.83;100.00;96769.84;5071886;28;20194;-59
2022/12/06 03:18:50;;;;;;;10.97;10.07;;;;;;;3.85;100.00;96767.16;5071507;28;20222;-58
2022/12/06 03:21:19;;;;;;;11.93;10.77;;;;;;;3.82;100.00;96757.75;5071996;28;20211;-59
2022/12/06 03:23:48;;;;;;;11.20;10.10;;;;;;;3.83;100.00;96755.94;5071823;28;20527;-59
2022/12/06 03:26:19;;;;;;;11.80;10.70;;;;;;;3.75;100.00;96751.22;5071797;28;20256;-59
2022/12/06 03:28:47;;;;;;;11.23;10.13;;;;;;;3.78;100.00;96753.63;5071985;28;20205;-59
2022/12/06 03:31:14;;;;;;;10.17;9.27;;;;;;;3.69;100.00;96756.81;5071541;28;20214;-59
2022/12/06 03:33:50;;;;;;;9.67;8.87;;;;;;;3.61;100.00;96764.34;5071378;28;20214;-59
2022/12/06 03:36:19;;;;;;;9.87;9.03;;;;;;;3.62;100.00;96758.16;5071763;28;20206;-59
2022/12/06 03:38:49;;;;;;;10.27;9.37;;;;;;;3.45;100.00;96758.38;5070373;28;20248;-58
2022/12/06 03:41:16;;;;;;;10.43;9.53;;;;;;;3.42;100.00;96755.97;5070266;28;20205;-59
2022/12/06 03:43:43;;;;;;;9.97;9.07;;;;;;;3.41;100.00;96751.69;5071719;28;20198;-59
2022/12/06 03:46:12;;;;;;;10.47;9.57;;;;;;;3.35;100.00;96752.06;5071781;28;20195;-58
2022/12/06 03:48:41;;;;;;;10.47;9.57;;;;;;;3.26;100.00;96757.88;5070918;28;20206;-60
2022/12/06 03:51:12;;;;;;;8.90;8.10;;;;;;;3.18;100.00;96757.50;5071682;28;20202;-59
2022/12/06 03:53:46;;;;;;;9.07;8.27;;;;;;;3.15;100.00;96766.41;5070987;28;20222;-59
2022/12/06 03:56:13;;;;;;;9.77;8.87;;;;;;;3.12;100.00;96768.34;5071511;28;20237;-59
2022/12/06 03:58:39;;;;;;;8.73;8.03;;;;;;;2.87;100.00;96769.03;5070796;28;20283;-59
2022/12/06 04:01:06;;;;;;;8.50;7.80;;;;;;;2.85;100.00;96774.31;5070339;28;20635;-59
2022/12/06 04:03:32;;;;;;;8.97;8.17;;;;;;;2.75;100.00;96772.34;5070919;28;20226;-59
2022/12/06 04:06:01;;;;;;;8.67;7.97;;;;;;;2.70;100.00;96779.63;5071214;28;20221;-59
2022/12/06 04:08:28;;;;;;;8.57;7.87;;;;;;;2.55;100.00;96778.75;5070872;28;20644;-59
2022/12/06 04:10:55;;;;;;;8.77;7.97;;;;;;;2.44;100.00;96768.94;5071434;28;20217;-59
2022/12/06 04:13:22;;;;;;;8.80;8.00;;;;;;;2.49;100.00;96766.06;5071090;28;20635;-59
2022/12/06 04:15:49;;;;;;;8.53;7.73;;;;;;;2.56;100.00;96764.78;5071626;28;20220;-59
2022/12/06 04:18:17;;;;;;;9.10;8.30;;;;;;;2.49;100.00;96772.13;5071814;28;20662;-58
2022/12/06 04:23:34;;;;;;;9.73;8.77;;;;;;;2.50;100.00;96771.22;5072662;28;20254;-59
2022/12/06 04:26:02;;;;;;;9.60;8.70;;;;;;;2.53;100.00;96772.78;5077798;28;20206;-59
2022/12/06 04:39:25;;;;;;;10.73;9.73;;;;;;;2.66;100.00;96768.50;5085691;28;20607;-58
2022/12/06 04:44:38;;;;;;;10.80;9.87;;;;;;;2.78;100.00;96761.72;5097158;28;20177;-59
2022/12/06 04:47:05;;;;;;;11.50;10.47;;;;;;;2.79;100.00;96752.97;5097356;28;20610;-58
2022/12/06 04:49:31;;;;;;;11.37;10.27;;;;;;;2.70;100.00;96751.72;5072648;28;20202;-58
2022/12/06 04:51:57;;;;;;;11.03;9.97;;;;;;;2.72;100.00;96746.44;5070251;28;20207;-59
2022/12/06 04:54:25;;;;;;;11.27;10.20;;;;;;;2.72;100.00;96749.88;5070409;28;20203;-59
2022/12/06 04:56:51;;;;;;;10.47;9.47;;;;;;;2.76;100.00;96747.94;5070459;28;20214;-59
2022/12/06 04:59:20;;;;;;;10.93;9.83;;;;;;;2.72;100.00;96736.84;5070514;28;20207;-59
2022/12/06 05:01:46;;;;;;;11.77;10.67;;;;;;;2.86;100.00;96733.38;5070149;28;20234;-59
2022/12/06 05:04:13;;;;;;;11.17;10.10;;;;;;;2.93;100.00;96735.53;5070348;28;20670;-59
2022/12/06 05:06:39;;;;;;;11.23;10.23;;;;;;;2.94;100.00;96731.16;5070268;28;20219;-59
2022/12/06 05:09:06;;;;;;;11.40;10.40;;;;;;;2.96;100.00;96726.66;5070683;28;20216;-59
2022/12/06 05:11:33;;;;;;;11.90;10.80;;;;;;;2.96;100.00;96729.25;5070132;28;20215;-59
2022/12/06 05:13:59;;;;;;;12.23;11.13;;;;;;;3.01;100.00;96727.22;5070451;28;20202;-58
2022/12/06 05:16:27;;;;;;;12.80;11.50;;;;;;;3.04;100.00;96729.63;5073093;28;20241;-59
2022/12/06 05:18:54;;;;;;;11.77;10.67;;;;;;;3.13;100.00;96726.44;5074157;28;20553;-60
2022/12/06 05:21:23;;;;;;;12.53;11.33;;;;;;;3.18;100.00;96728.78;5074120;28;20195;-59
2022/12/06 05:23:50;;;;;;;12.07;10.97;;;;;;;3.12;100.00;96727.38;5075091;28;20233;-60
2022/12/06 05:26:18;;;;;;;11.83;10.73;;;;;;;3.13;100.00;96723.81;5075026;28;20558;-60
2022/12/06 05:28:47;;;;;;;12.57;11.27;;;;;;;3.18;100.00;96720.94;5076072;28;20207;-60
2022/12/06 05:31:15;;;;;;;11.67;10.60;;;;;;;3.19;100.00;96718.22;5076426;28;20210;-59
2022/12/06 05:33:43;;;;;;;12.77;11.53;;;;;;;3.32;100.00;96718.28;5075691;28;20288;-61
2022/12/06 05:36:12;;;;;;;13.17;11.87;;;;;;;3.35;100.00;96712.88;5078453;28;20201;-59
2022/12/06 05:38:39;;;;;;;13.50;12.20;;;;;;;3.43;100.00;96715.84;5080463;28;20239;-59
2022/12/06 05:41:06;;;;;;;13.17;11.90;;;;;;;3.41;100.00;96710.69;5076048;28;20527;-59
2022/12/06 05:43:32;;;;;;;12.37;11.27;;;;;;;3.43;100.00;96708.00;5075026;28;20230;-60
2022/12/06 05:45:59;;;;;;;13.23;12.03;;;;;;;3.48;100.00;96718.97;5073819;28;20216;-60
2022/12/06 05:48:26;;;;;;;12.90;11.70;;;;;;;3.48;100.00;96718.97;5073075;28;20202;-60
2022/12/06 05:50:54;;;;;;;13.90;12.60;;;;;;;3.49;100.00;96712.81;5074768;28;20209;-60
2022/12/06 05:53:24;;;;;;;13.67;12.37;;;;;;;3.46;100.00;96713.03;5074766;28;20639;-59
2022/12/06 05:55:51;;;;;;;13.50;12.20;;;;;;;3.50;100.00;96719.75;5074774;28;20627;-58
2022/12/06 05:58:18;;;;;;;13.10;11.70;;;;;;;3.56;100.00;96716.72;5074305;28;20206;-59
2022/12/06 06:00:46;;;;;;;14.37;12.97;;;;;;;3.57;100.00;96718.41;5076216;28;20214;-60
2022/12/06 06:03:12;;;;;;;13.90;12.50;;;;;;;3.62;100.00;96723.31;5075349;28;20222;-60
2022/12/06 06:05:45;;;;;;;13.77;12.37;;;;;;;3.67;100.00;96722.09;5074788;28;20539;-60
2022/12/06 06:08:13;;;;;;;14.40;13.00;;;;;;;3.73;100.00;96716.47;5075302;28;20208;-61
2022/12/06 06:10:40;;;;;;;14.13;12.73;;;;;;;3.71;100.00;96720.97;5079898;28;20202;-60
2022/12/06 06:13:06;;;;;;;12.30;11.17;;;;;;;3.67;100.00;96716.03;5076941;28;20219;-61
2022/12/06 06:15:33;;;;;;;11.17;10.20;;;;;;;3.70;100.00;96714.06;5076489;28;20202;-60
2022/12/06 06:17:59;;;;;;;11.10;10.07;;;;;;;3.70;100.00;96716.66;5075025;28;20276;-60
2022/12/06 06:20:26;;;;;;;11.97;10.87;;;;;;;3.67;100.00;96711.66;5076391;28;20202;-59
2022/12/06 06:22:53;;;;;;;12.50;11.27;;;;;;;3.63;100.00;96710.16;5072923;28;20679;-59
2022/12/06 06:25:21;;;;;;;10.90;9.90;;;;;;;3.58;100.00;96701.75;5072899;28;20684;-60
2022/12/06 06:27:47;;;;;;;10.73;9.73;;;;;;;3.63;100.00;96704.94;5073009;28;20214;-61
2022/12/06 06:30:14;;;;;;;11.43;10.50;;;;;;;3.68;100.00;96700.25;5073354;28;20210;-60
2022/12/06 06:32:41;;;;;;;11.03;10.03;;;;;;;3.65;100.00;96697.00;5072742;28;20210;-58
2022/12/06 06:35:08;;;;;;;11.43;10.40;;;;;;;3.69;100.00;96708.91;5071898;28;20305;-64
2022/12/06 06:37:35;;;;;;;11.50;10.50;;;;;;;3.67;100.00;96705.56;5070524;28;20226;-63
2022/12/06 06:40:01;;;;;;;10.90;10.00;;;;;;;3.70;100.00;96705.38;5071535;28;20206;-63
2022/12/06 06:42:29;;;;;;;11.27;10.17;;;;;;;3.68;100.00;96707.25;5070593;28;20234;-63
2022/12/06 06:44:55;;;;;;;11.07;9.80;;;;;;;3.66;100.00;96704.72;5071721;28;20198;-62
2022/12/06 06:47:23;;;;;;;10.70;9.70;;;;;;;3.62;100.00;96705.84;5071680;28;20209;-63
2022/12/06 06:49:49;;;;;;;10.23;9.23;;;;;;;3.65;100.00;96695.19;5071918;28;20209;-63
2022/12/06 06:52:16;;;;;;;11.77;10.73;;;;;;;3.67;100.00;96693.34;5072860;28;20206;-64
2022/12/06 06:54:43;;;;;;;11.50;10.50;;;;;;;3.69;100.00;96699.28;5077810;28;20203;-64
2022/12/06 06:57:10;;;;;;;11.93;10.73;;;;;;;3.65;100.00;96702.22;5080901;28;20615;-64
2022/12/06 06:59:38;;;;;;;11.63;10.53;;;;;;;3.63;100.00;96694.47;5077627;28;20210;-63
2022/12/06 07:02:04;;;;;;;12.50;11.30;;;;;;;3.64;100.00;96701.38;5072406;28;20202;-63
2022/12/06 07:04:31;;;;;;;11.73;10.63;;;;;;;3.66;100.00;96701.28;5076301;28;20205;-63
2022/12/06 07:06:57;;;;;;;12.40;11.10;;;;;;;3.68;100.00;96697.63;5077765;28;20697;-64
2022/12/06 07:09:24;;;;;;;12.13;11.03;;;;;;;3.64;100.00;96700.53;5079483;28;20202;-64
2022/12/06 07:11:51;;;;;;;12.83;11.57;;;;;;;3.59;100.00;96705.22;5077292;28;20209;-63
2022/12/06 07:14:17;;;;;;;13.07;11.83;;;;;;;3.62;100.00;96703.25;5079005;28;20218;-64
2022/12/06 07:16:45;;;;;;;24.70;21.37;;;;;;;3.71;100.00;96702.66;5077558;28;20225;-64
2022/12/06 07:19:12;;;;;;;18.10;16.20;;;;;;;3.71;100.00;96704.44;5072899;28;20207;-64
2022/12/06 07:21:39;;;;;;;15.10;13.27;;;;;;;3.66;100.00;96707.34;5072757;28;20207;-65
2022/12/06 07:24:08;;;;;;;18.13;16.23;;;;;;;3.68;100.00;96708.09;5075505;28;20540;-63
2022/12/06 07:26:35;;;;;;;15.17;13.67;;;;;;;3.66;100.00;96709.13;5082062;28;20273;-63
2022/12/06 07:29:01;;;;;;;23.40;19.97;;;;;;;3.73;100.00;96706.00;5072424;28;20213;-64
2022/12/06 07:31:29;;;;;;;15.97;14.37;;;;;;;3.74;100.00;96709.47;5071905;28;20635;-64
2022/12/06 07:34:01;;;;;;;14.87;13.07;;;;;;;3.81;100.00;96724.66;5071196;28;20308;-64
2022/12/06 07:36:30;;;;;;;14.63;13.17;;;;;;;3.83;100.00;96717.53;5071584;28;20213;-64
2022/12/06 07:38:58;;;;;;;13.97;12.27;;;;;;;3.87;100.00;96712.94;5071085;28;20241;-64
2022/12/06 07:46:56;;;;;;;13.97;12.60;;;;;;;3.67;100.00;96710.81;5071776;28;20278;-64
2022/12/06 07:49:24;;;;;;;13.77;12.47;;;;;;;3.74;100.00;96710.31;5072016;28;20209;-63
2022/12/06 07:51:51;;;;;;;14.07;12.67;;;;;;;3.78;100.00;96709.19;5071475;28;20199;-64
2022/12/06 07:54:17;;;;;;;13.27;12.00;;;;;;;3.81;100.00;96714.19;5071699;28;20206;-63
2022/12/06 07:56:44;;;;;;;13.27;11.97;;;;;;;3.83;100.00;96712.31;5071473;28;20516;-63
2022/12/06 07:59:11;;;;;;;12.20;11.10;;;;;;;3.87;100.00;96708.56;5071824;28;20238;-63
2022/12/06 08:01:38;;;;;;;12.47;11.27;;;;;;;3.90;100.00;96707.50;5071455;28;20638;-63
2022/12/06 08:04:06;;;;;;;13.30;12.03;;;;;;;3.81;100.00;96714.19;5072186;28;20238;-63
2022/12/06 08:06:34;;;;;;;12.73;11.50;;;;;;;3.86;100.00;96712.09;5072683;28;20217;-63
2022/12/06 08:09:01;;;;;;;13.30;12.07;;;;;;;3.89;100.00;96708.47;5072483;28;20206;-63
2022/12/06 08:11:27;;;;;;;12.83;11.53;;;;;;;3.95;100.00;96711.50;5073926;28;20217;-64
2022/12/06 08:13:54;;;;;;;13.10;11.80;;;;;;;3.96;100.00;96713.22;5079431;28;20198;-63
2022/12/06 08:16:21;;;;;;;12.00;10.90;;;;;;;3.95;100.00;96710.66;5084643;28;20213;-63
2022/12/06 08:18:48;;;;;;;11.97;10.77;;;;;;;3.97;100.00;96703.56;5076559;28;20205;-63
2022/12/06 08:21:15;;;;;;;12.00;10.80;;;;;;;3.98;100.00;96706.06;5092150;28;20198;-62
2022/12/06 08:23:43;;;;;;;11.70;10.60;;;;;;;4.01;100.00;96712.88;5088632;28;20285;-64
2022/12/06 08:26:12;;;;;;;10.80;9.70;;;;;;;3.98;100.00;96716.53;5073181;28;20216;-63
2022/12/06 08:28:39;;;;;;;10.57;9.50;;;;;;;4.00;100.00;96714.66;5071142;28;20211;-63
2022/12/06 08:31:07;;;;;;;10.30;9.40;;;;;;;4.03;100.00;96718.03;5071254;28;20295;-64
2022/12/06 08:33:34;;;;;;;9.67;8.83;;;;;;;4.05;100.00;96710.91;5070779;28;20635;-63
2022/12/06 08:36:01;;;;;;;10.83;9.77;;;;;;;4.04;100.00;96715.28;5070804;28;20203;-63
2022/12/06 08:38:28;;;;;;;11.50;10.40;;;;;;;4.06;100.00;96713.44;5070942;28;20242;-63
2022/12/06 08:40:56;;;;;;;10.80;9.80;;;;;;;3.99;100.00;96722.63;5071009;28;20199;-63
2022/12/06 08:43:23;;;;;;;10.80;9.73;;;;;;;3.94;100.00;96725.53;5070842;28;20222;-63
2022/12/06 08:45:51;;;;;;;11.00;9.90;;;;;;;3.94;100.00;96724.69;5070893;28;20206;-64
2022/12/06 08:48:17;;;;;;;10.53;9.63;;;;;;;3.94;100.00;96729.91;5072057;28;20210;-63
2022/12/06 08:50:44;;;;;;;10.67;9.67;;;;;;;3.88;100.00;96725.94;5074850;28;20543;-64
2022/12/06 08:53:11;;;;;;;11.67;10.57;;;;;;;3.81;100.00;96732.50;5075123;28;20267;-63
2022/12/06 08:55:38;;;;;;;9.97;9.07;;;;;;;3.79;100.00;96731.75;5074929;28;20225;-63
2022/12/06 08:58:06;;;;;;;11.00;10.00;;;;;;;3.78;100.00;96729.25;5075028;28;20211;-64
2022/12/06 09:00:33;;;;;;;10.77;9.77;;;;;;;3.90;100.00;96729.28;5074149;28;20627;-63
2022/12/06 09:03:00;;;;;;;9.87;9.03;;;;;;;4.03;100.00;96733.72;5074918;28;20298;-63
2022/12/06 09:05:26;;;;;;;11.20;10.10;;;;;;;4.17;100.00;96738.88;5074472;28;20198;-63
2022/12/06 09:07:53;;;;;;;10.43;9.50;;;;;;;4.32;100.00;96738.69;5074736;28;20206;-63
2022/12/06 09:10:19;;;;;;;10.73;9.73;;;;;;;4.48;100.00;96744.59;5074543;28;20210;-63
2022/12/06 09:12:46;;;;;;;11.60;10.50;;;;;;;4.49;100.00;96745.44;5074836;28;20205;-63
2022/12/06 09:15:14;;;;;;;10.80;9.80;;;;;;;4.58;100.00;96746.56;5074387;28;20225;-62
2022/12/06 09:17:40;;;;;;;10.03;9.13;;;;;;;4.91;100.00;96739.88;5074653;28;20213;-64
2022/12/06 09:20:08;;;;;;;10.60;9.60;;;;;;;5.18;100.00;96741.50;5074348;28;20206;-64
2022/12/06 09:22:35;;;;;;;9.70;8.90;;;;;;;5.62;100.00;96730.47;5074263;28;20206;-63
2022/12/06 09:25:02;;;;;;;9.80;8.90;;;;;;;5.86;97.70;96724.31;5074329;28;20237;-64
2022/12/06 09:27:31;;;;;;;9.57;8.73;;;;;;;5.62;96.04;96731.31;5077556;28;20635;-64
2022/12/06 09:29:59;;;;;;;9.00;8.20;;;;;;;5.59;95.56;96718.44;5080253;28;20213;-64
2022/12/06 09:32:27;;;;;;;8.97;8.17;;;;;;;5.65;94.79;96725.84;5081250;28;20214;-64
2022/12/06 09:34:53;;;;;;;9.57;8.77;;;;;;;5.89;94.41;96724.09;5076389;28;20202;-63
2022/12/06 09:37:20;;;;;;;10.57;9.57;;;;;;;6.09;92.35;96722.63;5074106;28;20227;-63
2022/12/06 09:39:49;;;;;;;8.77;7.97;;;;;;;6.09;91.40;96721.81;5073592;28;20260;-63
2022/12/06 09:42:30;;;;;;;8.27;7.57;;;;;;;6.25;89.49;96719.69;5074519;28;20214;-64
2022/12/06 09:45:35;;;;;;;7.97;7.27;;;;;;;6.30;89.63;96718.41;5074425;28;20206;-64
2022/12/06 09:48:16;;;;;;;7.90;7.10;;;;;;;6.10;88.18;96713.78;5065310;28;20202;-64
2022/12/06 09:50:51;;;;;;;7.53;6.83;;;;;;;6.01;89.17;96717.13;5074421;28;20199;-64
2022/12/06 09:53:22;;;;;;;7.00;6.40;;;;;;;6.04;90.05;96721.28;5077945;28;20240;-65
2022/12/06 09:56:01;;;;;;;7.20;6.60;;;;;;;6.12;89.94;96716.31;5074629;28;20195;-64
2022/12/06 09:58:39;;;;;;;7.27;6.67;;;;;;;6.20;89.41;96709.53;5074377;28;20653;-64
2022/12/06 10:01:15;;;;;;;7.33;6.77;;;;;;;6.20;88.33;96706.09;5073733;28;20603;-64
2022/12/06 10:04:02;;;;;;;7.40;6.80;;;;;;;6.14;88.38;96709.16;5073389;28;20202;-63
2022/12/06 10:06:35;;;;;;;7.30;6.70;;;;;;;6.12;88.77;96708.44;5073738;28;20198;-63
2022/12/06 10:09:10;;;;;;;7.23;6.63;;;;;;;6.23;88.63;96711.09;5072827;28;20202;-64
2022/12/06 10:11:47;;;;;;;7.00;6.40;;;;;;;6.18;88.41;96707.97;5073973;28;20198;-64
2022/12/06 10:14:25;;;;;;;6.50;6.00;;;;;;;6.14;87.03;96701.28;5073761;28;20195;-64
2022/12/06 10:16:57;;;;;;;6.23;5.73;;;;;;;6.19;87.54;96709.66;5073370;28;20693;-64
2022/12/06 10:19:36;;;;;;;6.90;6.30;;;;;;;6.43;86.36;96708.66;5073380;28;20182;-63
2022/12/06 10:22:10;;;;;;;6.53;6.03;;;;;;;6.42;85.70;96706.13;5073574;28;20202;-64
2022/12/06 10:24:46;;;;;;;7.40;6.80;;;;;;;6.26;86.13;96710.88;5072890;28;20212;-64
2022/12/06 10:27:20;;;;;;;7.00;6.40;;;;;;;6.16;85.46;96709.88;5073871;28;20209;-63
2022/12/06 10:29:55;;;;;;;6.43;5.83;;;;;;;5.76;88.17;96702.31;5073078;28;20205;-65
2022/12/06 10:32:46;;;;;;;7.10;6.50;;;;;;;5.63;89.21;96706.78;5073120;28;20190;-63
2022/12/06 10:35:22;;;;;;;6.87;6.27;;;;;;;5.71;88.53;96699.16;5065783;28;20194;-64
2022/12/06 10:37:59;;;;;;;6.57;5.97;;;;;;;5.86;88.18;96695.44;5072806;28;20491;-63
2022/12/06 10:40:30;;;;;;;7.00;6.30;;;;;;;5.65;89.13;96694.38;5072962;28;20199;-64
2022/12/06 10:43:00;;;;;;;6.77;6.17;;;;;;;5.49;90.81;96693.81;5072732;28;20193;-65
2022/12/06 10:48:20;;;;;;;7.17;6.57;;;;;;;5.09;93.38;96689.75;5072603;28;20214;-64
2022/12/06 10:50:51;;;;;;;6.27;5.67;;;;;;;5.18;94.75;96687.28;5072655;28;20214;-65
2022/12/06 10:53:18;;;;;;;6.10;5.60;;;;;;;5.06;94.72;96695.19;5072636;28;20217;-64
2022/12/06 10:55:48;;;;;;;6.43;5.83;;;;;;;5.05;94.73;96690.91;5071864;28;20198;-63
2022/12/06 10:58:18;;;;;;;6.83;6.13;;;;;;;4.95;95.23;96694.19;5072492;28;20639;-63
2022/12/06 11:00:52;;;;;;;6.83;6.23;;;;;;;4.74;95.42;96690.44;5072062;28;20202;-62
2022/12/06 11:03:24;;;;;;;6.60;6.07;;;;;;;4.61;96.38;96689.59;5072610;28;20209;-64
2022/12/06 11:05:56;;;;;;;7.37;6.77;;;;;;;4.60;97.55;96693.16;5072403;28;20209;-63
2022/12/06 11:08:25;;;;;;;6.87;6.27;;;;;;;4.59;98.10;96686.25;5073042;28;20255;-64
2022/12/06 11:10:53;;;;;;;6.87;6.27;;;;;;;4.48;97.97;96683.50;5072042;28;20202;-63
2022/12/06 11:13:22;;;;;;;7.10;6.50;;;;;;;4.53;99.34;96686.66;5070912;28;20213;-64
2022/12/06 11:15:53;;;;;;;6.57;5.97;;;;;;;4.46;98.45;96685.41;5072721;28;20206;-64
2022/12/06 11:18:20;;;;;;;6.50;6.00;;;;;;;4.51;98.83;96683.31;5072353;28;20195;-64
2022/12/06 11:20:51;;;;;;;6.63;6.07;;;;;;;4.42;99.81;96689.19;5071728;28;20213;-64
2022/12/06 11:23:25;;;;;;;6.20;5.60;;;;;;;4.42;99.93;96689.19;5071638;28;20191;-64
2022/12/06 11:26:01;;;;;;;6.90;6.17;;;;;;;4.39;99.87;96677.13;5072836;28;20519;-64
2022/12/06 11:28:35;;;;;;;6.90;6.30;;;;;;;4.36;99.99;96668.63;5071204;28;20198;-64
2022/12/06 11:31:05;;;;;;;7.30;6.60;;;;;;;4.40;100.00;96670.09;5071683;28;20712;-64
2022/12/06 11:33:41;;;;;;;6.37;5.77;;;;;;;4.34;99.63;96676.59;5079979;28;21029;-63
2022/12/06 11:36:08;;;;;;;6.37;5.77;;;;;;;4.34;100.00;96671.38;5079757;28;20205;-64
2022/12/06 11:38:37;;;;;;;6.90;6.27;;;;;;;4.25;100.00;96681.63;5079059;28;20206;-63
2022/12/06 11:41:06;;;;;;;6.63;6.03;;;;;;;4.29;100.00;96670.84;5079999;28;20198;-64
2022/12/06 11:43:34;;;;;;;6.97;6.37;;;;;;;4.33;100.00;96663.59;5078917;28;20641;-63
2022/12/06 11:46:02;;;;;;;7.00;6.30;;;;;;;4.39;100.00;96673.69;5079267;28;21349;-63
2022/12/06 11:48:32;;;;;;;6.97;6.37;;;;;;;4.33;100.00;96669.69;5078765;28;20202;-64
2022/12/06 11:51:00;;;;;;;7.30;6.70;;;;;;;4.34;100.00;96666.13;5079467;28;20203;-64
2022/12/06 11:53:31;;;;;;;6.87;6.27;;;;;;;4.37;100.00;96658.06;5079149;28;20226;-64
2022/12/06 11:56:01;;;;;;;6.87;6.27;;;;;;;4.38;100.00;96657.13;5093359;28;20214;-64
2022/12/06 11:58:30;;;;;;;7.43;6.83;;;;;;;4.47;100.00;96666.13;5106500;28;20206;-64